createdAt,value
2023-04-06T00:02:05.133Z,101650.88
2023-04-06T00:04:32.958Z,101654.34
2023-04-06T00:07:02.185Z,101649.88
2023-04-06T00:09:30.082Z,101651.63
2023-04-06T00:11:58.861Z,101653.34
2023-04-06T00:14:26.741Z,101649.56
2023-04-06T00:16:54.589Z,101646.84
2023-04-06T00:19:22.474Z,101638.84
2023-04-06T00:21:50.484Z,101633.59
2023-04-06T00:24:19.724Z,101644.13
2023-04-06T00:26:47.716Z,101643.16
2023-04-06T00:29:16.012Z,101636.00
2023-04-06T00:31:44.015Z,101630.53
2023-04-06T00:34:12.664Z,101626.84
2023-04-06T00:36:40.554Z,101625.91
2023-04-06T00:39:08.662Z,101624.97
2023-04-06T00:41:38.087Z,101625.81
2023-04-06T00:44:06.029Z,101622.25
2023-04-06T00:46:34.566Z,101617.81
2023-04-06T00:49:02.458Z,101619.53
2023-04-06T00:51:30.295Z,101614.91
2023-04-06T00:53:58.264Z,101617.44
2023-04-06T00:56:27.248Z,101611.19
2023-04-06T00:58:56.644Z,101607.56
2023-04-06T01:01:26.470Z,101605.78
2023-04-06T01:03:55.295Z,101600.44
2023-04-06T01:06:23.148Z,101592.41
2023-04-06T01:08:51.030Z,101592.31
2023-04-06T01:11:19.690Z,101601.06
2023-04-06T01:13:47.974Z,101585.03
2023-04-06T01:16:17.619Z,101584.13
2023-04-06T01:18:45.612Z,101590.09
2023-04-06T01:21:16.560Z,101590.91
2023-04-06T01:23:47.009Z,101585.53
2023-04-06T01:26:15.312Z,101589.78
2023-04-06T01:28:43.103Z,101583.34
2023-04-06T01:31:11.835Z,101585.91
2023-04-06T01:33:39.673Z,101579.72
2023-04-06T01:36:08.039Z,101586.44
2023-04-06T01:38:35.908Z,101573.94
2023-04-06T01:41:05.110Z,101570.25
2023-04-06T01:43:32.929Z,101575.38
2023-04-06T01:46:00.856Z,101574.63
2023-04-06T01:48:29.239Z,101571.19
2023-04-06T01:50:57.571Z,101569.34
2023-04-06T01:53:25.404Z,101564.66
2023-04-06T01:55:53.331Z,101559.31
2023-04-06T01:58:22.535Z,101567.34
2023-04-06T02:00:50.353Z,101568.41
2023-04-06T02:03:18.152Z,101564.84
2023-04-06T02:05:45.985Z,101567.50
2023-04-06T02:08:14.351Z,101566.66
2023-04-06T02:10:42.142Z,101564.91
2023-04-06T02:13:09.905Z,101564.91
2023-04-06T02:15:39.190Z,101556.91
2023-04-06T02:18:07.463Z,101561.38
2023-04-06T02:20:35.404Z,101551.50
2023-04-06T02:23:03.227Z,101557.66
2023-04-06T02:25:30.995Z,101565.34
2023-04-06T02:27:59.191Z,101558.16
2023-04-06T02:30:27.009Z,101555.47
2023-04-06T02:32:56.517Z,101553.75
2023-04-06T02:35:24.442Z,101551.94
2023-04-06T02:37:52.779Z,101552.78
2023-04-06T02:40:20.600Z,101551.94
2023-04-06T02:42:48.373Z,101552.00
2023-04-06T02:45:16.413Z,101550.13
2023-04-06T02:47:44.726Z,101549.25
2023-04-06T02:50:13.904Z,101547.50
2023-04-06T02:52:41.766Z,101545.59
2023-04-06T02:55:09.979Z,101547.41
2023-04-06T02:57:38.076Z,101543.88
2023-04-06T03:00:07.650Z,101537.72
2023-04-06T03:02:35.641Z,101543.00
2023-04-06T03:05:04.812Z,101541.22
2023-04-06T03:07:34.113Z,101541.31
2023-04-06T03:10:01.873Z,101546.56
2023-04-06T03:12:29.737Z,101540.41
2023-04-06T03:14:57.546Z,101546.59
2023-04-06T03:17:25.351Z,101538.72
2023-04-06T03:19:53.171Z,101536.94
2023-04-06T03:22:21.878Z,101547.50
2023-04-06T03:24:50.983Z,101527.34
2023-04-06T03:27:19.367Z,101533.44
2023-04-06T03:29:47.250Z,101533.50
2023-04-06T03:32:15.019Z,101537.94
2023-04-06T03:34:42.795Z,101532.72
2023-04-06T03:37:11.051Z,101539.66
2023-04-06T03:39:38.941Z,101533.53
2023-04-06T03:42:08.218Z,101537.03
2023-04-06T03:44:36.012Z,101543.09
2023-04-06T03:47:04.070Z,101542.16
2023-04-06T03:49:31.937Z,101533.22
2023-04-06T03:51:59.677Z,101534.88
2023-04-06T03:54:27.457Z,101534.13
2023-04-06T03:56:56.110Z,101534.19
2023-04-06T03:59:25.478Z,101526.22
2023-04-06T04:01:53.300Z,101531.34
2023-04-06T04:04:21.257Z,101526.84
2023-04-06T04:06:49.017Z,101526.06
2023-04-06T04:09:16.804Z,101527.78
2023-04-06T04:11:44.724Z,101532.19
2023-04-06T04:14:12.484Z,101525.94
2023-04-06T04:16:42.799Z,101530.22
2023-04-06T04:19:11.122Z,101534.53
2023-04-06T04:21:45.779Z,101529.13
2023-04-06T04:24:13.709Z,101535.03
2023-04-06T04:26:42.510Z,101538.41
2023-04-06T04:29:10.482Z,101535.44
2023-04-06T04:31:38.580Z,101528.22
2023-04-06T04:34:08.807Z,101533.34
2023-04-06T04:36:36.817Z,101534.28
2023-04-06T04:39:04.831Z,101530.81
2023-04-06T04:41:32.599Z,101526.41
2023-04-06T04:44:00.386Z,101527.34
2023-04-06T04:46:28.215Z,101522.09
2023-04-06T04:48:56.031Z,101534.47
2023-04-06T04:51:25.785Z,101528.38
2023-04-06T04:53:53.568Z,101524.91
2023-04-06T04:56:21.323Z,101525.00
2023-04-06T04:58:49.157Z,101521.47
2023-04-06T05:01:17.049Z,101524.41
2023-04-06T05:03:45.075Z,101523.69
2023-04-06T05:06:13.465Z,101524.63
2023-04-06T05:08:42.986Z,101523.78
2023-04-06T05:11:10.989Z,101524.75
2023-04-06T05:13:38.985Z,101525.75
2023-04-06T05:16:07.202Z,101526.75
2023-04-06T05:18:35.242Z,101524.25
2023-04-06T05:21:03.116Z,101527.84
2023-04-06T05:23:31.279Z,101536.00
2023-04-06T05:26:00.591Z,101532.53
2023-04-06T05:28:28.500Z,101528.25
2023-04-06T05:30:56.415Z,101525.69
2023-04-06T05:33:24.328Z,101525.78
2023-04-06T05:35:52.222Z,101534.72
2023-04-06T05:38:20.016Z,101529.63
2023-04-06T05:40:48.407Z,101523.59
2023-04-06T05:43:17.789Z,101528.13
2023-04-06T05:45:46.795Z,101528.28
2023-04-06T05:48:14.747Z,101529.34
2023-04-06T05:50:42.526Z,101528.53
2023-04-06T05:53:10.300Z,101532.25
2023-04-06T05:55:38.301Z,101532.47
2023-04-06T05:58:06.191Z,101528.34
2023-04-06T06:00:35.512Z,101524.19
2023-04-06T06:03:05.250Z,101520.03
2023-04-06T06:05:33.124Z,101520.28
2023-04-06T06:08:03.121Z,101520.34
2023-04-06T06:10:31.359Z,101525.91
2023-04-06T06:12:59.186Z,101519.16
2023-04-06T06:15:27.388Z,101518.56
2023-04-06T06:17:56.689Z,101512.66
2023-04-06T06:20:24.631Z,101509.34
2023-04-06T06:22:52.498Z,101511.28
2023-04-06T06:25:20.514Z,101510.66
2023-04-06T06:27:48.427Z,101513.56
2023-04-06T06:30:19.837Z,101515.56
2023-04-06T06:32:48.537Z,101518.38
2023-04-06T06:35:18.152Z,101512.44
2023-04-06T06:37:46.120Z,101503.84
2023-04-06T06:40:17.027Z,101515.56
2023-04-06T06:42:45.012Z,101512.25
2023-04-06T06:45:13.081Z,101515.16
2023-04-06T06:47:42.279Z,101509.19
2023-04-06T06:50:10.674Z,101511.09
2023-04-06T06:52:40.060Z,101516.59
2023-04-06T06:55:08.966Z,101511.50
2023-04-06T06:57:36.822Z,101504.63
2023-04-06T07:00:06.262Z,101508.31
2023-04-06T07:02:34.168Z,101509.41
2023-04-06T07:05:04.449Z,101506.03
2023-04-06T07:07:35.863Z,101500.00
2023-04-06T07:10:05.517Z,101494.00
2023-04-06T07:12:35.594Z,101490.66
2023-04-06T07:15:03.828Z,101496.19
2023-04-06T07:17:31.686Z,101497.31
2023-04-06T07:19:59.500Z,101496.63
2023-04-06T07:22:27.491Z,101488.97
2023-04-06T07:24:55.889Z,101483.91
2023-04-06T07:27:25.149Z,101496.59
2023-04-06T07:29:52.967Z,101492.50
2023-04-06T07:32:20.822Z,101488.34
2023-04-06T07:34:48.717Z,101492.09
2023-04-06T07:37:17.113Z,101486.03
2023-04-06T07:39:45.077Z,101486.09
2023-04-06T07:42:13.020Z,101489.69
2023-04-06T07:44:42.268Z,101485.28
2023-04-06T07:47:10.240Z,101483.63
2023-04-06T07:49:38.277Z,101478.47
2023-04-06T07:52:06.316Z,101473.25
2023-04-06T07:54:34.165Z,101485.00
2023-04-06T07:57:01.960Z,101486.03
2023-04-06T07:59:29.960Z,101478.19
2023-04-06T08:01:59.315Z,101471.25
2023-04-06T08:04:27.473Z,101472.28
2023-04-06T08:06:55.427Z,101472.44
2023-04-06T08:09:23.389Z,101470.75
2023-04-06T08:11:51.223Z,101469.03
2023-04-06T08:14:19.105Z,101462.88
2023-04-06T08:16:47.064Z,101473.59
2023-04-06T08:19:18.248Z,101466.53
2023-04-06T08:21:46.826Z,101473.66
2023-04-06T08:24:14.825Z,101471.03
2023-04-06T08:26:43.504Z,101469.31
2023-04-06T08:29:12.061Z,101464.06
2023-04-06T08:31:40.066Z,101462.28
2023-04-06T08:34:10.254Z,101461.41
2023-04-06T08:36:41.616Z,101467.69
2023-04-06T08:39:09.551Z,101461.50
2023-04-06T08:41:37.662Z,101458.06
2023-04-06T08:44:06.083Z,101461.66
2023-04-06T08:46:34.038Z,101447.41
2023-04-06T08:49:03.505Z,101445.63
2023-04-06T08:51:32.363Z,101445.66
2023-04-06T08:54:02.574Z,101443.88
2023-04-06T08:56:30.946Z,101446.53
2023-04-06T08:58:59.749Z,101443.91
2023-04-06T09:01:29.818Z,101439.41
2023-04-06T09:03:59.348Z,101441.16
2023-04-06T09:06:28.740Z,101436.72
2023-04-06T09:08:57.622Z,101438.47
2023-04-06T09:11:27.455Z,101442.00
2023-04-06T09:13:58.296Z,101435.75
2023-04-06T09:16:26.946Z,101426.81
2023-04-06T09:18:54.875Z,101434.84
2023-04-06T09:21:25.296Z,101440.13
2023-04-06T09:24:01.418Z,101431.16
2023-04-06T09:26:34.592Z,101429.31
2023-04-06T09:29:04.497Z,101420.31
2023-04-06T09:31:34.316Z,101422.91
2023-04-06T09:34:02.724Z,101424.66
2023-04-06T09:36:34.798Z,101420.09
2023-04-06T09:39:04.332Z,101414.66
2023-04-06T09:41:35.095Z,101416.47
2023-04-06T09:44:07.218Z,101411.94
2023-04-06T09:46:50.655Z,101422.56
2023-04-06T09:49:25.792Z,101410.84
2023-04-06T09:51:57.909Z,101411.72
2023-04-06T09:54:30.202Z,101410.78
2023-04-06T09:57:06.414Z,101415.28
2023-04-06T09:59:49.656Z,101417.91
2023-04-06T10:02:25.226Z,101414.28
2023-04-06T10:05:00.249Z,101407.94
2023-04-06T10:07:29.281Z,101405.25
2023-04-06T10:09:57.930Z,101401.69
2023-04-06T10:12:27.193Z,101405.25
2023-04-06T10:14:56.518Z,101404.28
2023-04-06T10:17:25.607Z,101396.03
2023-04-06T10:20:00.418Z,101400.31
2023-04-06T10:22:38.064Z,101403.69
2023-04-06T10:25:06.646Z,101402.72
2023-04-06T10:27:35.888Z,101404.38
2023-04-06T10:30:05.341Z,101407.97
2023-04-06T10:32:38.268Z,101401.66
2023-04-06T10:35:10.561Z,101405.25
2023-04-06T10:37:55.398Z,101402.50
2023-04-06T10:40:27.061Z,101401.53
2023-04-06T10:42:58.426Z,101398.75
2023-04-06T10:45:27.594Z,101400.44
2023-04-06T10:47:56.904Z,101403.97
2023-04-06T10:50:25.993Z,101397.56
2023-04-06T10:53:04.380Z,101402.00
2023-04-06T10:55:33.297Z,101400.28
2023-04-06T10:58:02.740Z,101404.94
2023-04-06T11:00:43.090Z,101400.44
2023-04-06T11:03:15.470Z,101395.91
2023-04-06T11:05:47.692Z,101397.56
2023-04-06T11:08:25.036Z,101390.44
2023-04-06T11:10:53.101Z,101402.91
2023-04-06T11:13:22.282Z,101393.03
2023-04-06T11:15:50.150Z,101396.63
2023-04-06T11:18:19.808Z,101398.47
2023-04-06T11:20:51.033Z,101398.53
2023-04-06T11:23:25.810Z,101396.69
2023-04-06T11:25:54.314Z,101397.53
2023-04-06T11:28:23.636Z,101397.50
2023-04-06T11:30:51.824Z,101397.38
2023-04-06T11:33:23.372Z,101393.59
2023-04-06T11:35:51.407Z,101391.81
2023-04-06T11:38:21.852Z,101391.81
2023-04-06T11:40:55.085Z,101384.59
2023-04-06T11:43:30.145Z,101390.00
2023-04-06T11:46:05.174Z,101385.50
2023-04-06T11:48:33.413Z,101383.66
2023-04-06T11:51:02.789Z,101380.06
2023-04-06T11:53:31.102Z,101384.56
2023-04-06T11:56:00.637Z,101384.56
2023-04-06T11:58:29.898Z,101382.84
2023-04-06T12:01:05.701Z,101386.53
2023-04-06T12:03:33.693Z,101380.41
2023-04-06T12:06:01.608Z,101388.53
2023-04-06T12:08:29.474Z,101384.09
2023-04-06T12:10:57.271Z,101387.66
2023-04-06T12:13:25.928Z,101387.59
2023-04-06T12:15:55.397Z,101381.09
2023-04-06T12:18:23.263Z,101381.91
2023-04-06T12:20:51.105Z,101375.41
2023-04-06T12:23:18.898Z,101380.75
2023-04-06T12:25:46.976Z,101379.94
2023-04-06T12:28:15.026Z,101370.22
2023-04-06T12:30:42.928Z,101377.50
2023-04-06T12:33:12.113Z,101375.56
2023-04-06T12:35:39.950Z,101378.13
2023-04-06T12:38:08.129Z,101376.38
2023-04-06T12:40:39.010Z,101375.47
2023-04-06T12:43:06.883Z,101371.84
2023-04-06T12:45:34.919Z,101374.50
2023-04-06T12:48:03.089Z,101373.63
2023-04-06T12:50:32.861Z,101373.69
2023-04-06T12:53:00.771Z,101368.34
2023-04-06T12:55:32.297Z,101371.09
2023-04-06T12:58:00.259Z,101371.06
2023-04-06T13:00:28.427Z,101372.78
2023-04-06T13:02:56.442Z,101373.63
2023-04-06T13:05:25.523Z,101370.09
2023-04-06T13:07:55.643Z,101364.69
2023-04-06T13:10:23.422Z,101380.81
2023-04-06T13:12:51.693Z,101372.88
2023-04-06T13:15:19.748Z,101370.53
2023-04-06T13:17:47.611Z,101377.81
2023-04-06T13:20:15.498Z,101374.47
2023-04-06T13:22:43.571Z,101370.06
2023-04-06T13:25:12.754Z,101367.41
2023-04-06T13:27:40.617Z,101367.44
2023-04-06T13:30:11.698Z,101372.97
2023-04-06T13:32:42.246Z,101361.31
2023-04-06T13:35:25.037Z,101362.22
2023-04-06T13:37:58.968Z,101370.28
2023-04-06T13:43:33.906Z,101363.28
2023-04-06T13:46:02.537Z,101370.53
2023-04-06T13:48:33.603Z,101372.34
2023-04-06T13:51:10.565Z,101368.78
2023-04-06T13:53:39.640Z,101366.13
2023-04-06T13:56:10.857Z,101367.94
2023-04-06T13:58:41.752Z,101366.03
2023-04-06T14:01:11.387Z,101369.75
2023-04-06T14:03:40.385Z,101358.16
2023-04-06T14:06:20.929Z,101372.53
2023-04-06T14:08:58.254Z,101366.22
2023-04-06T14:11:27.832Z,101365.38
2023-04-06T14:13:57.960Z,101369.97
2023-04-06T14:16:27.619Z,101370.00
2023-04-06T14:18:56.224Z,101366.56
2023-04-06T14:21:24.459Z,101368.44
2023-04-06T14:23:53.700Z,101364.06
2023-04-06T14:26:21.677Z,101365.91
2023-04-06T14:28:51.558Z,101372.19
2023-04-06T14:31:19.915Z,101367.69
2023-04-06T14:33:47.991Z,101364.13
2023-04-06T14:36:15.812Z,101363.22
2023-04-06T14:38:45.044Z,101369.50
2023-04-06T14:41:17.577Z,101362.31
2023-04-06T14:43:45.522Z,101358.84
2023-04-06T14:46:16.708Z,101350.78
2023-04-06T14:48:45.161Z,101349.88
2023-04-06T14:51:13.408Z,101348.84
2023-04-06T14:53:41.452Z,101348.75
2023-04-06T14:56:09.483Z,101340.66
2023-04-06T14:58:37.462Z,101346.00
2023-04-06T15:01:05.449Z,101337.97
2023-04-06T15:03:34.777Z,101343.50
2023-04-06T15:06:02.716Z,101332.88
2023-04-06T15:08:30.504Z,101336.53
2023-04-06T15:11:01.355Z,101324.09
2023-04-06T15:13:29.097Z,101330.50
2023-04-06T15:15:57.461Z,101334.09
2023-04-06T15:18:25.427Z,101329.66
2023-04-06T15:20:54.653Z,101317.22
2023-04-06T15:23:22.775Z,101329.81
2023-04-06T15:25:50.597Z,101331.66
2023-04-06T15:28:18.451Z,101331.69
2023-04-06T15:30:46.325Z,101326.41
2023-04-06T15:33:14.074Z,101330.03
2023-04-06T15:35:43.821Z,101330.94
2023-04-06T15:38:13.075Z,101337.19
2023-04-06T15:40:45.591Z,101332.72
2023-04-06T15:43:13.684Z,101327.41
2023-04-06T15:45:42.130Z,101322.97
2023-04-06T15:48:10.319Z,101327.50
2023-04-06T15:50:38.819Z,101326.63
2023-04-06T15:53:07.226Z,101326.69
2023-04-06T15:55:37.015Z,101324.88
2023-04-06T15:58:04.870Z,101334.72
2023-04-06T16:00:32.738Z,101337.47
2023-04-06T16:03:00.926Z,101338.44
2023-04-06T16:05:34.040Z,101334.84
2023-04-06T16:08:02.529Z,101336.66
2023-04-06T16:10:30.477Z,101328.63
2023-04-06T16:12:59.712Z,101334.03
2023-04-06T16:15:27.639Z,101339.44
2023-04-06T16:17:55.376Z,101343.03
2023-04-06T16:20:23.351Z,101343.94
2023-04-06T16:22:51.215Z,101341.28
2023-04-06T16:25:19.166Z,101344.88
2023-04-06T16:27:47.118Z,101343.09
2023-04-06T16:30:16.777Z,101346.69
2023-04-06T16:32:47.162Z,101349.38
2023-04-06T16:35:14.971Z,101347.56
2023-04-06T16:37:42.824Z,101340.44
2023-04-06T16:40:11.674Z,101335.13
2023-04-06T16:42:39.719Z,101341.34
2023-04-06T16:45:09.018Z,101340.47
2023-04-06T16:47:38.627Z,101337.81
2023-04-06T16:50:07.850Z,101342.28
2023-04-06T16:52:35.905Z,101338.69
2023-04-06T16:55:03.995Z,101328.91
2023-04-06T16:57:34.159Z,101332.50
2023-04-06T17:00:02.308Z,101331.59
2023-04-06T17:02:31.434Z,101333.38
2023-04-06T17:05:02.312Z,101327.13
2023-04-06T17:07:32.904Z,101317.34
2023-04-06T17:10:02.280Z,101319.13
2023-04-06T17:12:30.279Z,101312.91
2023-04-06T17:14:59.070Z,101311.13
2023-04-06T17:17:27.206Z,101314.69
2023-04-06T17:19:55.369Z,101307.53
2023-04-06T17:22:24.630Z,101298.66
2023-04-06T17:24:52.539Z,101295.97
2023-04-06T17:27:24.902Z,101305.78
2023-04-06T17:29:52.784Z,101305.78
2023-04-06T17:32:21.597Z,101303.09
2023-04-06T17:34:49.558Z,101307.56
2023-04-06T17:37:19.472Z,101306.66
2023-04-06T17:39:49.027Z,101303.09
2023-04-06T17:42:18.243Z,101299.53
2023-04-06T17:44:48.756Z,101304.00
2023-04-06T17:47:18.676Z,101300.41
2023-04-06T17:49:47.111Z,101304.88
2023-04-06T17:52:15.059Z,101297.75
2023-04-06T17:54:43.116Z,101295.94
2023-04-06T17:57:12.410Z,101300.41
2023-04-06T17:59:46.101Z,101298.59
2023-04-06T18:02:14.458Z,101296.81
2023-04-06T18:04:44.373Z,101297.69
2023-04-06T18:07:28.985Z,101294.16
2023-04-06T18:09:56.914Z,101285.22
2023-04-06T18:12:26.495Z,101287.00
2023-04-06T18:14:54.541Z,101281.63
2023-04-06T18:17:22.375Z,101289.66
2023-04-06T18:19:50.274Z,101283.44
2023-04-06T18:22:19.505Z,101287.91
2023-04-06T18:24:47.450Z,101283.44
2023-04-06T18:27:15.459Z,101281.66
2023-04-06T18:29:45.336Z,101281.66
2023-04-06T18:32:13.609Z,101272.75
2023-04-06T18:34:41.446Z,101277.22
2023-04-06T18:37:09.306Z,101272.75
2023-04-06T18:39:37.323Z,101273.63
2023-04-06T18:42:06.093Z,101265.63
2023-04-06T18:44:33.836Z,101274.50
2023-04-06T18:47:03.285Z,101271.84
2023-04-06T18:49:31.604Z,101277.19
2023-04-06T18:52:00.113Z,101282.50
2023-04-06T18:54:28.065Z,101286.06
2023-04-06T18:56:56.291Z,101284.31
2023-04-06T18:59:24.166Z,101283.38
2023-04-06T19:01:54.318Z,101283.38
2023-04-06T19:04:24.041Z,101286.97
2023-04-06T19:06:52.507Z,101288.72
2023-04-06T19:09:20.421Z,101288.72
2023-04-06T19:11:48.251Z,101285.19
2023-04-06T19:14:18.235Z,101285.16
2023-04-06T19:16:52.379Z,101282.50
2023-04-06T19:19:21.637Z,101285.16
2023-04-06T19:21:50.977Z,101294.06
2023-04-06T19:24:19.090Z,101278.94
2023-04-06T19:26:47.385Z,101282.50
2023-04-06T19:29:15.412Z,101279.84
2023-04-06T19:31:43.415Z,101279.84
2023-04-06T19:34:11.320Z,101279.84
2023-04-06T19:36:39.182Z,101277.16
2023-04-06T19:39:08.477Z,101276.25
2023-04-06T19:41:36.402Z,101279.84
2023-04-06T19:44:04.921Z,101275.38
2023-04-06T19:46:33.328Z,101270.91
2023-04-06T19:49:01.442Z,101272.72
2023-04-06T19:51:33.633Z,101272.72
2023-04-06T19:54:01.754Z,101271.78
2023-04-06T19:56:31.226Z,101267.38
2023-04-06T19:58:59.112Z,101269.13
2023-04-06T20:01:27.639Z,101264.69
2023-04-06T20:03:55.947Z,101262.03
2023-04-06T20:06:23.917Z,101259.34
2023-04-06T20:08:51.749Z,101262.03
2023-04-06T20:11:19.589Z,101270.03
2023-04-06T20:13:49.411Z,101265.56
2023-04-06T20:16:19.476Z,101269.97
2023-04-06T20:18:47.415Z,101260.19
2023-04-06T20:21:15.469Z,101268.16
2023-04-06T20:23:46.165Z,101264.56
2023-04-06T20:26:14.098Z,101261.00
2023-04-06T20:28:41.997Z,101266.34
2023-04-06T20:31:12.308Z,101268.16
2023-04-06T20:33:41.082Z,101273.44
2023-04-06T20:36:11.875Z,101261.03
2023-04-06T20:38:42.603Z,101266.38
2023-04-06T20:41:11.023Z,101265.50
2023-04-06T20:43:39.057Z,101268.16
2023-04-06T20:46:09.164Z,101253.06
2023-04-06T20:48:39.038Z,101249.50
2023-04-06T20:51:07.145Z,101246.84
2023-04-06T20:53:36.601Z,101245.97
2023-04-06T20:56:04.825Z,101238.84
2023-04-06T20:58:33.350Z,101239.72
2023-04-06T21:01:02.691Z,101237.94
2023-04-06T21:03:30.964Z,101235.25
2023-04-06T21:06:03.518Z,101229.91
2023-04-06T21:08:31.390Z,101230.81
2023-04-06T21:11:00.541Z,101235.25
2023-04-06T21:13:28.617Z,101230.81
2023-04-06T21:15:57.613Z,101222.81
2023-04-06T21:18:25.844Z,101229.03
2023-04-06T21:20:53.924Z,101230.81
2023-04-06T21:23:23.697Z,101221.03
2023-04-06T21:25:52.147Z,101221.03
2023-04-06T21:28:20.465Z,101221.97
2023-04-06T21:30:48.382Z,101214.84
2023-04-06T21:33:16.895Z,101214.84
2023-04-06T21:35:44.966Z,101221.09
2023-04-06T21:38:13.286Z,101221.09
2023-04-06T21:40:42.513Z,101209.50
2023-04-06T21:43:10.431Z,101213.03
2023-04-06T21:45:38.470Z,101215.69
2023-04-06T21:48:07.019Z,101218.38
2023-04-06T21:50:34.845Z,101213.03
2023-04-06T21:53:02.506Z,101208.56
2023-04-06T21:55:30.316Z,101208.63
2023-04-06T21:57:59.515Z,101204.16
2023-04-06T22:00:27.459Z,101199.69
2023-04-06T22:02:55.623Z,101209.50
2023-04-06T22:05:23.594Z,101200.63
2023-04-06T22:07:52.187Z,101196.16
2023-04-06T22:10:20.241Z,101201.50
2023-04-06T22:12:50.087Z,101194.38
2023-04-06T22:15:19.364Z,101191.69
2023-04-06T22:17:47.186Z,101187.28
2023-04-06T22:20:15.000Z,101186.38
2023-04-06T22:22:42.882Z,101180.16
2023-04-06T22:25:11.093Z,101178.34
2023-04-06T22:27:38.845Z,101180.16
2023-04-06T22:30:07.923Z,101181.03
2023-04-06T22:32:37.135Z,101181.91
2023-04-06T22:35:05.126Z,101187.25
2023-04-06T22:37:32.926Z,101183.69
2023-04-06T22:40:00.622Z,101179.22
2023-04-06T22:42:28.295Z,101185.47
2023-04-06T22:44:56.040Z,101189.91
2023-04-06T22:47:23.871Z,101188.16
2023-04-06T22:49:53.128Z,101189.91
2023-04-06T22:52:21.509Z,101188.16
2023-04-06T22:54:49.264Z,101183.75
2023-04-06T22:57:17.023Z,101180.19
2023-04-06T22:59:44.766Z,101184.63
2023-04-06T23:02:14.158Z,101175.75
2023-04-06T23:04:42.073Z,101179.31
2023-04-06T23:07:12.329Z,101181.97
2023-04-06T23:09:41.104Z,101175.78
2023-04-06T23:12:09.380Z,101176.66
2023-04-06T23:14:37.092Z,101174.88
2023-04-06T23:17:05.237Z,101185.53
2023-04-06T23:19:33.141Z,101180.19
2023-04-06T23:22:01.251Z,101179.31
2023-04-06T23:24:30.554Z,101171.31
2023-04-06T23:26:58.343Z,101181.97
2023-04-06T23:29:26.123Z,101177.53
2023-04-06T23:31:53.897Z,101173.97
2023-04-06T23:34:21.670Z,101179.31
2023-04-06T23:36:49.365Z,101179.31
2023-04-06T23:39:17.117Z,101172.22
2023-04-06T23:41:46.353Z,101174.88
2023-04-06T23:44:14.048Z,101178.44
2023-04-06T23:46:41.978Z,101182.88
2023-04-06T23:49:09.669Z,101178.44
2023-04-06T23:51:37.615Z,101174.00
2023-04-06T23:54:05.471Z,101174.00
2023-04-06T23:56:33.218Z,101175.78
2023-04-06T23:59:02.412Z,101182.88
